Crouch, Idaho
Current Conditions -  °F | °C
As of 6:53 AM on Tuesday 21 Oct 2014 (Local Time) from KBOI Reporting Station
Overcast Overcast  
Wind Chill: 45°   Ceiling: 5000
Heat Index: 49°   Visibility: 10mi
Dew Point: 44°   Wind: 9mph
Humidity: 83%   Direction: 170°S
Pressure: 29.93"   Gusts: NA
Location:  44.07°N, 115.488°W
Report Text: KBOI 211253Z 17008KT 10SM BKN050 OVC060 09/07 A2993 RMK AO2 RAB31E41 SLP123 P0000 T00940067
Loading
Personal Weather Stations






























Interactive Weather Map
Tropical Storm Tracking
New forecast layout! Learn more

10-Day Weather Forecast

Advertisements
Track Severe Weather on mobile